Time;durP1;ratioP1;P1;durP2;ratioP2;P2;SDS_P1;SDS_P2;PMS_P1;PMS_P2;Temp;Humidity;BMP_temperature;BMP_pressure;BME280_temperature;BME280_humidity;BME280_pressure;Samples;Min_cycle;Max_cycle;Signal;HPM_P1;HPM_P2
2021/03/17 00:01:11;;;;;;;3.07;2.73;;;6.80;99.90;;;;;;5041722;28;20460;-71
2021/03/17 00:03:39;;;;;;;3.30;2.73;;;6.70;99.90;;;;;;5041953;28;21027;-72
2021/03/17 00:06:05;;;;;;;3.47;2.47;;;6.80;99.90;;;;;;5025398;28;20436;-71
2021/03/17 00:08:32;;;;;;;3.53;2.60;;;6.90;99.90;;;;;;5038081;28;20983;-70
2021/03/17 00:10:59;;;;;;;4.27;3.27;;;6.90;99.90;;;;;;5012474;28;20457;-70
2021/03/17 00:13:27;;;;;;;2.73;2.37;;;7.00;99.90;;;;;;5042403;28;20500;-70
2021/03/17 00:15:56;;;;;;;3.60;2.97;;;6.80;99.90;;;;;;5038245;28;20938;-71
2021/03/17 00:18:26;;;;;;;5.40;3.50;;;6.80;99.90;;;;;;5038952;28;20604;-71
2021/03/17 00:20:53;;;;;;;2.93;1.83;;;6.90;99.90;;;;;;5025995;28;20544;-70
2021/03/17 00:23:20;;;;;;;3.13;2.60;;;6.90;99.90;;;;;;5039186;28;20583;-69
2021/03/17 00:25:49;;;;;;;5.30;3.47;;;6.90;99.90;;;;;;5039543;28;20455;-70
2021/03/17 00:28:15;;;;;;;5.80;2.27;;;6.80;99.90;;;;;;5040882;28;20481;-70
2021/03/17 00:30:42;;;;;;;4.10;2.70;;;6.70;99.90;;;;;;5044465;28;21007;-71
2021/03/17 00:33:10;;;;;;;4.40;2.77;;;6.80;99.90;;;;;;5039120;28;20492;-71
2021/03/17 00:35:37;;;;;;;2.63;2.30;;;6.70;99.90;;;;;;5033119;28;20758;-71
2021/03/17 00:38:05;;;;;;;3.57;2.33;;;6.60;99.90;;;;;;5038896;28;20506;-70
2021/03/17 00:40:32;;;;;;;3.23;2.93;;;6.50;99.90;;;;;;5038121;28;20482;-70
2021/03/17 00:42:59;;;;;;;5.20;2.80;;;6.50;99.90;;;;;;5040858;28;20479;-71
2021/03/17 00:45:27;;;;;;;2.70;2.40;;;6.50;99.90;;;;;;5041990;28;20578;-71
2021/03/17 00:47:54;;;;;;;3.60;2.40;;;6.60;99.90;;;;;;5046017;28;20526;-71
2021/03/17 00:50:21;;;;;;;3.10;1.97;;;6.60;99.90;;;;;;5035510;28;20575;-71
2021/03/17 00:52:48;;;;;;;3.00;2.27;;;6.50;99.90;;;;;;5037394;28;20581;-70
2021/03/17 00:55:15;;;;;;;7.63;1.90;;;6.50;99.90;;;;;;5038823;28;20494;-71
2021/03/17 00:57:42;;;;;;;3.17;2.60;;;6.60;99.90;;;;;;5038552;28;20463;-71
2021/03/17 01:00:12;;;;;;;8.20;2.07;;;6.70;99.90;;;;;;5028462;28;20441;-70
2021/03/17 01:02:39;;;;;;;2.20;1.87;;;6.80;99.90;;;;;;5040051;28;20461;-70
2021/03/17 01:05:33;;;;;;;5.30;3.20;;;6.80;99.90;;;;;;5037399;28;20545;-70
2021/03/17 01:08:00;;;;;;;3.17;2.50;;;6.70;99.90;;;;;;5037165;28;20521;-70
2021/03/17 01:10:32;;;;;;;7.20;3.00;;;6.70;99.90;;;;;;5036650;28;20462;-71
2021/03/17 01:12:59;;;;;;;3.67;2.73;;;6.70;99.90;;;;;;5041099;28;20508;-70
2021/03/17 01:15:25;;;;;;;13.53;2.73;;;6.60;99.90;;;;;;5045534;28;21201;-70
2021/03/17 01:17:52;;;;;;;4.43;2.57;;;6.60;99.90;;;;;;5031156;28;20512;-71
2021/03/17 01:20:21;;;;;;;3.40;2.33;;;6.70;99.90;;;;;;5037970;28;21205;-71
2021/03/17 01:22:48;;;;;;;9.53;3.00;;;6.80;99.90;;;;;;5037852;28;21022;-71
2021/03/17 01:25:18;;;;;;;4.37;2.30;;;6.70;99.90;;;;;;5030769;28;20459;-70
2021/03/17 01:27:46;;;;;;;15.00;2.73;;;6.80;99.90;;;;;;5037503;28;20423;-71
2021/03/17 01:30:15;;;;;;;8.30;2.83;;;6.70;99.90;;;;;;5028090;28;20447;-71
2021/03/17 01:32:41;;;;;;;11.93;2.83;;;6.80;99.90;;;;;;5037886;28;20565;-70
2021/03/17 01:35:10;;;;;;;7.00;2.83;;;6.70;99.90;;;;;;5039944;28;20926;-70
2021/03/17 01:37:36;;;;;;;4.80;4.30;;;6.70;99.90;;;;;;5041580;28;20527;-70
2021/03/17 01:40:04;;;;;;;4.10;2.37;;;6.80;99.90;;;;;;5039869;28;20575;-70
2021/03/17 01:42:32;;;;;;;6.20;2.77;;;6.80;99.90;;;;;;5036982;28;20491;-70
2021/03/17 01:44:59;;;;;;;7.33;3.50;;;6.60;99.90;;;;;;5032586;28;20604;-70
2021/03/17 01:47:27;;;;;;;8.13;2.43;;;6.60;99.90;;;;;;5026470;28;20844;-71
2021/03/17 01:49:53;;;;;;;8.50;2.77;;;6.60;99.90;;;;;;5029205;28;21065;-71
2021/03/17 01:52:20;;;;;;;4.10;2.83;;;6.50;99.90;;;;;;5023293;28;20499;-70
2021/03/17 01:54:46;;;;;;;4.53;2.70;;;6.40;99.90;;;;;;5039261;28;20569;-71
2021/03/17 01:57:14;;;;;;;2.50;1.83;;;6.30;99.90;;;;;;5039582;28;20433;-72
2021/03/17 01:59:41;;;;;;;2.30;1.83;;;6.40;99.90;;;;;;5038476;28;20495;-70
2021/03/17 02:02:08;;;;;;;2.63;2.30;;;6.30;99.90;;;;;;5043034;28;20479;-70
2021/03/17 02:04:35;;;;;;;2.90;2.67;;;6.40;99.90;;;;;;5027773;28;20442;-71
2021/03/17 02:07:01;;;;;;;12.30;2.70;;;6.40;99.90;;;;;;5037379;28;20593;-71
2021/03/17 02:09:28;;;;;;;4.30;2.90;;;6.40;99.90;;;;;;5032188;28;20436;-70
2021/03/17 02:12:03;;;;;;;3.37;2.70;;;6.30;99.90;;;;;;5025099;28;20486;-71
2021/03/17 02:14:43;;;;;;;8.67;5.17;;;6.20;99.90;;;;;;5039012;28;20797;-70
2021/03/17 02:17:14;;;;;;;5.73;2.33;;;6.20;99.90;;;;;;5046287;28;20433;-71
2021/03/17 02:20:10;;;;;;;3.00;2.63;;;6.00;99.90;;;;;;5042083;28;20893;-71
2021/03/17 02:22:47;;;;;;;7.53;2.13;;;6.00;99.90;;;;;;5042396;28;20814;-71
2021/03/17 02:25:41;;;;;;;2.40;2.10;;;5.90;99.90;;;;;;5042715;28;20433;-70
2021/03/17 02:28:25;;;;;;;3.77;2.60;;;5.90;99.90;;;;;;5037756;28;20472;-71
2021/03/17 02:31:39;;;;;;;2.37;1.63;;;5.80;99.90;;;;;;5039164;28;21020;-71
2021/03/17 02:34:09;;;;;;;2.03;1.70;;;5.80;99.90;;;;;;5043496;28;20470;-71
2021/03/17 02:36:42;;;;;;;3.13;2.77;;;5.80;99.90;;;;;;5039372;28;20463;-72
2021/03/17 02:39:12;;;;;;;5.03;3.80;;;5.90;99.90;;;;;;5040661;28;20448;-71
2021/03/17 02:41:45;;;;;;;7.93;3.53;;;6.00;99.90;;;;;;5035912;28;20434;-71
2021/03/17 02:44:16;;;;;;;10.53;3.50;;;5.90;99.90;;;;;;5039639;28;20424;-70
2021/03/17 02:46:44;;;;;;;2.60;1.87;;;5.90;99.90;;;;;;5034255;28;20445;-71
2021/03/17 02:49:16;;;;;;;5.63;2.80;;;5.80;99.90;;;;;;5033317;28;21047;-72
2021/03/17 02:51:46;;;;;;;2.00;1.80;;;5.70;99.90;;;;;;5039227;28;20428;-71
2021/03/17 02:54:16;;;;;;;3.40;2.47;;;5.80;99.90;;;;;;5037647;28;20914;-71
2021/03/17 02:56:45;;;;;;;3.90;3.20;;;5.70;99.90;;;;;;5050839;28;20538;-71
2021/03/17 02:59:16;;;;;;;3.30;2.27;;;5.70;99.90;;;;;;5051625;28;20526;-71
2021/03/17 03:01:43;;;;;;;3.07;2.20;;;5.60;99.90;;;;;;5051512;28;20428;-70
2021/03/17 03:04:11;;;;;;;3.17;1.90;;;5.60;99.90;;;;;;5042800;28;20504;-71
2021/03/17 03:06:40;;;;;;;2.20;1.33;;;5.60;99.90;;;;;;5039028;28;21967;-70
2021/03/17 03:09:08;;;;;;;4.10;2.87;;;5.60;99.90;;;;;;5041303;28;20571;-71
2021/03/17 03:11:35;;;;;;;2.13;1.90;;;5.50;99.90;;;;;;5042720;28;20429;-71
2021/03/17 03:14:04;;;;;;;3.73;2.27;;;5.50;99.90;;;;;;5040336;28;20508;-71
2021/03/17 03:16:32;;;;;;;6.20;2.77;;;5.40;99.90;;;;;;5040531;28;20577;-71
2021/03/17 03:19:01;;;;;;;2.60;2.40;;;5.50;99.90;;;;;;5042852;28;20478;-71
2021/03/17 03:21:29;;;;;;;4.13;2.27;;;5.50;99.90;;;;;;5037172;28;20459;-70
2021/03/17 03:24:00;;;;;;;2.60;2.27;;;5.30;99.90;;;;;;5049937;28;20451;-71
2021/03/17 03:26:27;;;;;;;1.20;1.10;;;5.30;99.90;;;;;;5046114;28;21064;-70
2021/03/17 03:28:56;;;;;;;4.30;3.80;;;5.50;99.90;;;;;;5050175;28;20587;-70
2021/03/17 03:31:24;;;;;;;4.50;2.60;;;5.50;99.90;;;;;;5039494;28;20896;-70
2021/03/17 03:33:50;;;;;;;1.43;1.30;;;5.50;99.90;;;;;;5052459;28;20478;-70
2021/03/17 03:36:17;;;;;;;2.53;2.13;;;5.40;99.90;;;;;;5039597;28;22754;-70
2021/03/17 03:38:44;;;;;;;5.37;2.33;;;5.50;99.90;;;;;;5044703;28;21033;-71
2021/03/17 03:41:11;;;;;;;4.17;2.73;;;5.50;99.90;;;;;;5053493;28;20484;-70
2021/03/17 03:43:38;;;;;;;3.47;2.60;;;5.50;99.90;;;;;;5038412;28;20561;-70
2021/03/17 03:46:04;;;;;;;4.17;2.03;;;5.60;99.90;;;;;;5031587;28;20442;-71
2021/03/17 03:48:31;;;;;;;1.83;1.60;;;5.60;99.90;;;;;;5049123;28;20557;-70
2021/03/17 03:50:58;;;;;;;2.60;2.40;;;5.60;99.90;;;;;;5046122;28;20452;-70
2021/03/17 03:53:45;;;;;;;2.00;1.80;;;5.50;99.90;;;;;;5026814;28;21263;-69
2021/03/17 03:56:17;;;;;;;2.60;1.70;;;5.60;99.90;;;;;;5037967;28;20424;-69
2021/03/17 03:58:48;;;;;;;2.30;1.70;;;5.40;99.90;;;;;;5038216;28;21084;-70
2021/03/17 04:01:21;;;;;;;2.37;2.13;;;5.50;99.90;;;;;;5047028;28;20436;-69
2021/03/17 04:03:54;;;;;;;1.77;1.60;;;5.60;99.90;;;;;;5045113;28;21412;-69
2021/03/17 04:06:21;;;;;;;5.30;2.10;;;5.50;99.90;;;;;;5045084;28;20869;-70
2021/03/17 04:08:49;;;;;;;1.60;1.50;;;5.40;99.90;;;;;;5035675;28;20451;-69
2021/03/17 04:11:18;;;;;;;2.37;1.80;;;5.40;99.90;;;;;;5045205;28;20450;-70
2021/03/17 04:13:46;;;;;;;3.50;1.33;;;5.50;99.90;;;;;;5043794;28;20456;-70
2021/03/17 04:16:14;;;;;;;2.27;1.73;;;5.50;99.90;;;;;;5045289;28;20539;-69
2021/03/17 04:18:45;;;;;;;1.70;1.60;;;5.40;99.90;;;;;;5049091;28;20455;-70
2021/03/17 04:21:17;;;;;;;1.87;1.30;;;5.30;99.90;;;;;;5050515;28;20468;-69
2021/03/17 04:23:46;;;;;;;5.33;2.93;;;5.50;99.90;;;;;;5052605;28;20540;-72
2021/03/17 04:26:13;;;;;;;2.13;2.03;;;5.50;99.90;;;;;;5042256;28;20466;-70
2021/03/17 04:28:43;;;;;;;2.00;1.47;;;5.60;99.90;;;;;;5045605;28;20456;-72
2021/03/17 04:31:10;;;;;;;2.80;2.47;;;5.80;99.90;;;;;;5045769;28;20516;-70
2021/03/17 04:33:44;;;;;;;3.80;3.40;;;5.90;99.90;;;;;;5043834;28;20468;-69
2021/03/17 04:36:13;;;;;;;5.67;2.77;;;6.10;99.90;;;;;;5041822;28;20463;-69
2021/03/17 04:38:41;;;;;;;3.37;2.07;;;5.80;99.90;;;;;;5040039;28;20497;-69
2021/03/17 04:41:08;;;;;;;2.53;2.20;;;5.70;99.90;;;;;;5043076;28;20545;-70
2021/03/17 04:43:37;;;;;;;2.77;2.27;;;5.50;99.90;;;;;;5049688;28;20453;-70
2021/03/17 04:46:05;;;;;;;2.57;1.97;;;5.50;99.90;;;;;;5047069;28;20465;-70
2021/03/17 04:48:33;;;;;;;2.90;2.50;;;5.50;99.90;;;;;;5037280;28;20921;-70
2021/03/17 04:51:00;;;;;;;1.83;1.23;;;5.50;99.90;;;;;;5046252;28;22126;-71
2021/03/17 04:53:27;;;;;;;2.93;2.50;;;5.60;99.90;;;;;;5034020;28;20549;-70
2021/03/17 04:55:53;;;;;;;2.77;2.43;;;5.60;99.90;;;;;;5033134;28;20521;-71
2021/03/17 04:58:22;;;;;;;2.67;2.47;;;5.50;99.90;;;;;;5040801;28;20509;-70
2021/03/17 05:00:50;;;;;;;4.60;3.60;;;5.50;99.90;;;;;;5039976;28;20430;-70
2021/03/17 05:03:21;;;;;;;3.17;1.67;;;5.50;99.90;;;;;;5039519;28;20453;-69
2021/03/17 05:05:50;;;;;;;2.43;1.43;;;5.60;99.90;;;;;;5048553;28;20528;-70
2021/03/17 05:08:18;;;;;;;9.53;3.40;;;5.60;99.90;;;;;;5039883;28;20525;-69
2021/03/17 05:10:47;;;;;;;3.17;2.00;;;5.50;99.90;;;;;;5049487;28;20504;-69
2021/03/17 05:13:15;;;;;;;4.40;1.70;;;5.50;99.90;;;;;;5040409;28;20936;-69
2021/03/17 05:15:43;;;;;;;6.43;5.37;;;5.60;99.90;;;;;;5042767;28;21297;-70
2021/03/17 05:18:11;;;;;;;3.00;2.50;;;5.50;99.90;;;;;;5037033;28;20437;-69
2021/03/17 05:20:41;;;;;;;6.00;2.63;;;5.50;99.90;;;;;;5048644;28;21052;-69
2021/03/17 05:23:08;;;;;;;1.30;1.17;;;5.50;99.90;;;;;;5040019;28;20477;-69
2021/03/17 05:25:36;;;;;;;4.03;3.07;;;5.40;99.90;;;;;;5041180;28;20564;-70
2021/03/17 05:28:04;;;;;;;3.90;2.13;;;5.30;99.90;;;;;;5048667;28;20440;-70
2021/03/17 05:30:32;;;;;;;2.03;1.83;;;5.30;99.90;;;;;;5055402;28;20803;-70
2021/03/17 05:33:01;;;;;;;4.80;2.63;;;5.40;99.90;;;;;;5047439;28;20465;-71
2021/03/17 05:35:28;;;;;;;0.90;0.80;;;5.40;99.90;;;;;;5043807;28;20956;-70
2021/03/17 05:37:55;;;;;;;1.43;1.00;;;5.00;99.90;;;;;;5043014;28;20516;-71
2021/03/17 05:40:22;;;;;;;2.03;1.83;;;4.50;99.90;;;;;;5044323;28;20550;-70
2021/03/17 05:42:49;;;;;;;1.47;1.37;;;4.20;99.90;;;;;;5042003;28;20565;-70
2021/03/17 05:45:17;;;;;;;1.93;1.67;;;4.20;99.90;;;;;;5045042;28;20472;-70
2021/03/17 05:47:46;;;;;;;1.73;0.97;;;4.20;99.90;;;;;;5053503;28;20488;-70
2021/03/17 05:50:14;;;;;;;1.47;1.37;;;4.20;99.90;;;;;;5049648;28;20557;-69
2021/03/17 05:52:42;;;;;;;1.67;1.30;;;4.20;99.90;;;;;;5037935;28;20515;-70
2021/03/17 05:55:12;;;;;;;2.27;1.80;;;4.40;99.90;;;;;;5049832;28;20503;-70
2021/03/17 05:57:39;;;;;;;2.30;1.20;;;4.20;99.90;;;;;;5051671;28;20436;-69
2021/03/17 06:00:08;;;;;;;5.07;1.23;;;4.10;99.90;;;;;;5046608;28;20936;-70
2021/03/17 06:02:37;;;;;;;2.27;1.07;;;4.00;99.90;;;;;;5052176;28;20996;-70
2021/03/17 06:05:05;;;;;;;2.60;1.47;;;4.20;99.90;;;;;;5049401;28;21033;-70
2021/03/17 06:07:53;;;;;;;1.00;0.80;;;4.30;99.90;;;;;;5047291;28;20516;-70
2021/03/17 06:10:22;;;;;;;1.03;0.93;;;4.50;99.90;;;;;;5054057;28;20455;-71
2021/03/17 06:12:51;;;;;;;1.60;1.07;;;4.50;99.90;;;;;;5051699;28;20515;-71
2021/03/17 06:15:22;;;;;;;0.90;0.70;;;4.50;99.90;;;;;;5053300;28;20455;-71
2021/03/17 06:17:53;;;;;;;10.60;2.10;;;4.50;99.90;;;;;;5047510;28;20424;-71
2021/03/17 06:20:20;;;;;;;7.87;2.27;;;4.50;99.90;;;;;;5046718;28;20460;-70
2021/03/17 06:22:47;;;;;;;1.50;1.30;;;4.50;99.90;;;;;;5053105;28;20481;-70
2021/03/17 06:25:16;;;;;;;1.20;0.97;;;4.60;99.90;;;;;;5043814;28;20481;-71
2021/03/17 06:27:43;;;;;;;1.47;1.37;;;4.60;99.90;;;;;;5053699;28;21021;-71
2021/03/17 06:30:12;;;;;;;2.00;1.10;;;4.60;99.90;;;;;;5055170;28;20499;-70
2021/03/17 06:32:39;;;;;;;1.63;1.50;;;4.60;99.90;;;;;;5049425;28;20611;-70
2021/03/17 06:35:17;;;;;;;2.40;1.10;;;4.60;99.90;;;;;;5047059;28;20460;-70
2021/03/17 06:37:43;;;;;;;3.17;1.97;;;4.80;99.90;;;;;;5057253;28;20482;-71
2021/03/17 06:40:23;;;;;;;2.50;1.10;;;4.90;99.90;;;;;;5020509;28;20490;-70
2021/03/17 06:42:50;;;;;;;6.60;1.37;;;5.00;99.90;;;;;;5054923;28;21065;-70
2021/03/17 06:45:29;;;;;;;3.57;1.37;;;5.20;99.90;;;;;;5050387;28;20462;-69
2021/03/17 06:47:56;;;;;;;6.20;1.37;;;5.20;99.90;;;;;;5060100;28;20472;-70
2021/03/17 06:50:29;;;;;;;1.50;1.00;;;5.10;99.90;;;;;;5061300;28;20480;-71
2021/03/17 06:52:55;;;;;;;1.70;1.60;;;5.10;99.90;;;;;;5056664;28;20463;-71
2021/03/17 06:55:23;;;;;;;2.37;1.50;;;5.20;99.90;;;;;;5053341;28;20477;-70
2021/03/17 06:57:52;;;;;;;2.73;1.43;;;5.20;99.90;;;;;;5058815;28;20540;-70
2021/03/17 07:00:25;;;;;;;1.53;1.17;;;5.70;99.90;;;;;;5053113;28;20553;-71
2021/03/17 07:02:53;;;;;;;1.30;1.20;;;5.90;99.90;;;;;;5054554;28;21039;-70
2021/03/17 07:05:20;;;;;;;1.47;1.37;;;6.20;99.90;;;;;;5053189;28;20462;-69
2021/03/17 07:07:48;;;;;;;4.20;2.30;;;6.30;99.90;;;;;;5036890;28;20608;-70
2021/03/17 07:10:25;;;;;;;1.60;1.30;;;6.30;99.90;;;;;;5051986;28;20426;-71
2021/03/17 07:12:55;;;;;;;1.20;1.00;;;6.20;99.90;;;;;;5055381;28;20457;-69
2021/03/17 07:15:21;;;;;;;8.30;1.83;;;6.00;99.90;;;;;;5053437;28;21013;-71
2021/03/17 07:17:48;;;;;;;1.10;0.90;;;5.80;99.90;;;;;;5056937;28;20473;-71
2021/03/17 07:20:34;;;;;;;3.00;1.80;;;5.80;99.90;;;;;;5052350;28;20566;-69
2021/03/17 07:23:27;;;;;;;2.93;1.73;;;5.80;99.90;;;;;;5050485;28;20449;-71
2021/03/17 07:26:05;;;;;;;6.57;1.60;;;5.80;99.90;;;;;;5055281;28;20442;-69
2021/03/17 07:28:54;;;;;;;2.27;1.63;;;6.00;99.90;;;;;;5050789;28;20512;-70
2021/03/17 07:31:22;;;;;;;2.47;1.10;;;6.10;99.90;;;;;;5053501;28;20516;-71
2021/03/17 07:33:49;;;;;;;1.30;1.20;;;6.20;99.90;;;;;;5049932;28;20562;-71
2021/03/17 07:36:31;;;;;;;1.97;0.97;;;6.10;99.90;;;;;;5057767;28;20493;-72
2021/03/17 07:38:59;;;;;;;1.17;1.00;;;6.20;99.90;;;;;;5054325;28;20458;-71
2021/03/17 07:41:26;;;;;;;1.87;1.53;;;6.10;99.90;;;;;;5055200;28;20956;-70
2021/03/17 07:43:54;;;;;;;1.43;1.33;;;6.00;99.90;;;;;;5035897;28;20610;-71
2021/03/17 07:46:21;;;;;;;4.20;1.33;;;6.30;99.90;;;;;;5054238;28;20913;-71
2021/03/17 07:48:49;;;;;;;2.80;1.63;;;6.60;99.90;;;;;;5059435;28;20549;-71
2021/03/17 07:51:17;;;;;;;1.70;1.47;;;6.40;99.90;;;;;;5055086;28;20440;-71
2021/03/17 07:53:48;;;;;;;7.00;1.67;;;6.50;99.90;;;;;;5056094;28;20596;-71
2021/03/17 07:56:17;;;;;;;1.40;0.93;;;6.50;99.90;;;;;;5054900;28;20461;-71
2021/03/17 07:58:44;;;;;;;2.37;1.63;;;6.40;99.90;;;;;;5051431;28;20593;-71
2021/03/17 08:01:12;;;;;;;3.57;2.13;;;6.30;99.90;;;;;;5050761;28;20843;-71
2021/03/17 08:03:40;;;;;;;1.87;1.20;;;6.20;99.90;;;;;;5052887;28;20485;-71
2021/03/17 08:06:07;;;;;;;3.20;2.00;;;6.10;99.90;;;;;;5050222;28;20948;-71
2021/03/17 08:08:35;;;;;;;1.70;1.27;;;5.90;99.90;;;;;;5051231;28;20494;-71
2021/03/17 08:11:02;;;;;;;5.17;2.60;;;5.90;99.90;;;;;;5053183;28;20441;-71
2021/03/17 08:13:30;;;;;;;7.13;1.97;;;5.80;99.90;;;;;;5052798;28;20465;-72
2021/03/17 08:15:57;;;;;;;1.63;0.90;;;5.90;99.90;;;;;;5060605;28;20433;-71
2021/03/17 08:18:47;;;;;;;1.90;1.50;;;5.80;99.90;;;;;;5051236;28;20491;-70
2021/03/17 08:21:14;;;;;;;1.30;1.20;;;5.90;99.90;;;;;;5050543;28;20525;-71
2021/03/17 08:23:45;;;;;;;1.23;1.13;;;6.00;99.90;;;;;;5050784;28;20914;-71
2021/03/17 08:26:13;;;;;;;7.20;1.50;;;6.10;99.90;;;;;;5050233;28;20443;-70
2021/03/17 08:28:47;;;;;;;2.10;1.63;;;6.10;99.90;;;;;;5058865;28;20551;-70
2021/03/17 08:31:43;;;;;;;5.30;1.70;;;6.30;99.90;;;;;;5056673;28;20546;-72
2021/03/17 08:34:25;;;;;;;8.73;1.50;;;6.50;99.90;;;;;;5056417;28;20540;-71
2021/03/17 08:36:53;;;;;;;7.63;2.13;;;6.60;99.90;;;;;;5052622;28;20459;-72
2021/03/17 08:39:41;;;;;;;1.53;1.43;;;6.70;99.90;;;;;;5061225;28;21041;-71
2021/03/17 08:42:09;;;;;;;1.63;1.10;;;6.50;99.90;;;;;;5043628;28;20592;-71
2021/03/17 08:44:45;;;;;;;2.70;1.60;;;6.60;99.90;;;;;;5047230;28;20981;-71
2021/03/17 08:47:21;;;;;;;2.43;1.63;;;6.70;99.90;;;;;;5051048;28;20466;-72
2021/03/17 08:49:49;;;;;;;3.10;1.70;;;6.90;99.90;;;;;;5048711;28;20455;-72
2021/03/17 08:52:18;;;;;;;3.67;1.47;;;7.00;99.90;;;;;;5054514;28;20671;-71
2021/03/17 08:55:10;;;;;;;3.07;2.00;;;7.30;99.90;;;;;;5056409;28;20478;-71
2021/03/17 08:57:51;;;;;;;2.70;2.10;;;7.40;99.90;;;;;;5050456;28;21033;-72
2021/03/17 09:00:46;;;;;;;2.73;1.83;;;7.30;99.90;;;;;;5058195;28;20437;-71
2021/03/17 09:03:34;;;;;;;3.93;1.50;;;7.10;99.90;;;;;;5053048;28;20615;-72
2021/03/17 09:06:09;;;;;;;4.90;1.73;;;7.20;99.90;;;;;;5047370;28;20466;-71
2021/03/17 09:08:47;;;;;;;8.17;2.37;;;7.00;99.90;;;;;;5044013;28;20991;-72
2021/03/17 09:11:57;;;;;;;1.60;1.50;;;7.00;99.90;;;;;;5050223;28;20461;-71
2021/03/17 09:14:29;;;;;;;1.77;1.37;;;6.90;99.90;;;;;;5056783;28;20462;-72
2021/03/17 09:17:29;;;;;;;1.53;1.10;;;6.90;99.90;;;;;;5049742;28;20525;-71
2021/03/17 09:20:25;;;;;;;3.60;2.00;;;6.90;99.90;;;;;;5048655;28;20934;-71
2021/03/17 09:23:19;;;;;;;1.53;1.13;;;6.80;99.90;;;;;;5046417;28;20457;-71
2021/03/17 09:25:50;;;;;;;2.17;1.53;;;6.50;99.90;;;;;;5024754;28;20547;-71
2021/03/17 09:28:23;;;;;;;1.67;1.30;;;6.50;99.90;;;;;;5049748;28;20860;-69
2021/03/17 09:30:52;;;;;;;1.00;0.80;;;6.80;99.90;;;;;;5050318;28;20910;-71
2021/03/17 09:33:23;;;;;;;2.57;1.70;;;6.70;99.90;;;;;;5050819;28;20465;-72
2021/03/17 09:35:53;;;;;;;3.33;1.77;;;6.90;99.90;;;;;;5029545;28;20471;-72
2021/03/17 09:38:21;;;;;;;3.43;2.03;;;6.80;99.90;;;;;;5052379;28;20495;-71
2021/03/17 09:40:52;;;;;;;2.70;1.10;;;7.00;99.90;;;;;;5056386;28;20482;-70
2021/03/17 09:43:47;;;;;;;4.90;1.90;;;7.30;99.90;;;;;;5044729;28;20514;-70
2021/03/17 09:46:27;;;;;;;6.40;1.07;;;7.70;99.90;;;;;;5056833;28;20446;-70
2021/03/17 09:48:55;;;;;;;1.27;0.80;;;7.70;99.90;;;;;;5043937;28;20464;-70
2021/03/17 09:51:24;;;;;;;3.20;1.87;;;7.50;99.90;;;;;;5051981;28;20904;-70
2021/03/17 09:53:54;;;;;;;1.73;1.33;;;7.00;99.90;;;;;;5053198;28;20474;-71
2021/03/17 09:56:36;;;;;;;1.40;1.17;;;7.10;99.90;;;;;;5050440;28;20478;-71
2021/03/17 09:59:22;;;;;;;3.20;2.10;;;7.30;99.90;;;;;;5048055;28;20458;-71
2021/03/17 10:01:55;;;;;;;3.13;1.90;;;7.60;99.90;;;;;;5047360;28;20959;-71
2021/03/17 10:04:23;;;;;;;3.03;2.70;;;7.80;99.90;;;;;;5047074;28;20541;-70
2021/03/17 10:06:50;;;;;;;4.83;1.13;;;7.70;99.90;;;;;;5044754;28;20456;-71
2021/03/17 10:09:18;;;;;;;3.10;1.87;;;8.00;99.90;;;;;;5052827;28;20514;-71
2021/03/17 10:11:45;;;;;;;1.63;1.20;;;8.80;99.90;;;;;;5049312;28;20482;-71
2021/03/17 10:14:14;;;;;;;2.43;1.50;;;9.30;99.90;;;;;;5055468;28;21181;-71
2021/03/17 10:16:41;;;;;;;1.10;0.90;;;9.30;99.90;;;;;;5053624;28;20943;-71
2021/03/17 10:19:11;;;;;;;1.50;1.40;;;8.40;99.90;;;;;;5055217;28;20488;-71
2021/03/17 10:21:38;;;;;;;2.33;1.07;;;8.20;99.90;;;;;;5052658;28;20848;-72
2021/03/17 10:24:06;;;;;;;3.10;1.00;;;7.70;99.90;;;;;;5038452;28;20461;-72
2021/03/17 10:26:35;;;;;;;1.50;1.40;;;7.60;99.90;;;;;;5046892;28;20668;-72
2021/03/17 10:29:03;;;;;;;6.83;1.30;;;7.30;99.90;;;;;;5053105;28;20454;-71
2021/03/17 10:31:31;;;;;;;1.40;1.30;;;7.30;99.90;;;;;;5053311;28;20533;-71
2021/03/17 10:33:58;;;;;;;1.83;1.30;;;7.40;99.90;;;;;;5048337;28;20558;-72
2021/03/17 10:36:26;;;;;;;1.47;1.03;;;7.40;99.90;;;;;;5033645;28;20585;-72
2021/03/17 10:38:53;;;;;;;10.70;2.70;;;7.80;99.90;;;;;;5049493;28;20455;-70
2021/03/17 10:41:43;;;;;;;1.77;1.17;;;7.80;99.90;;;;;;5044122;28;20516;-70
2021/03/17 10:44:15;;;;;;;4.90;2.67;;;7.60;99.90;;;;;;5045682;28;20530;-71
2021/03/17 10:47:04;;;;;;;1.30;1.20;;;7.40;99.90;;;;;;5051793;28;21011;-72
2021/03/17 10:49:33;;;;;;;2.27;1.40;;;7.20;99.90;;;;;;5049701;28;20547;-71
2021/03/17 10:52:01;;;;;;;0.97;0.73;;;7.20;99.90;;;;;;5048085;28;20543;-70
2021/03/17 10:54:32;;;;;;;26.13;3.03;;;7.10;99.90;;;;;;5056767;28;20492;-71
2021/03/17 10:57:01;;;;;;;2.77;1.70;;;7.10;99.90;;;;;;5048247;28;20477;-72
2021/03/17 10:59:30;;;;;;;2.80;1.50;;;7.10;99.90;;;;;;5050339;28;20961;-71
2021/03/17 11:02:25;;;;;;;1.10;1.00;;;7.00;99.90;;;;;;5051765;28;20458;-71
2021/03/17 11:05:27;;;;;;;1.70;1.30;;;7.00;99.90;;;;;;5048488;28;20516;-71
2021/03/17 11:07:59;;;;;;;7.00;2.10;;;7.10;99.90;;;;;;5053922;28;20832;-72
2021/03/17 11:10:41;;;;;;;1.20;0.90;;;7.30;99.90;;;;;;5049160;28;20458;-71
2021/03/17 11:13:30;;;;;;;5.73;2.33;;;7.40;99.90;;;;;;5051375;28;20461;-72
2021/03/17 11:16:00;;;;;;;1.37;1.27;;;7.50;99.90;;;;;;5049799;28;20510;-72
2021/03/17 11:18:28;;;;;;;3.20;1.83;;;7.70;99.90;;;;;;5050202;28;20455;-72
2021/03/17 11:20:57;;;;;;;4.50;1.27;;;7.80;99.90;;;;;;5053406;28;20874;-71
2021/03/17 11:23:26;;;;;;;4.23;1.10;;;7.80;99.90;;;;;;5054057;28;20632;-71
2021/03/17 11:25:55;;;;;;;2.60;1.37;;;7.90;99.90;;;;;;5053256;28;20468;-71
2021/03/17 11:28:24;;;;;;;1.53;1.10;;;8.20;99.90;;;;;;5051898;28;20569;-71
2021/03/17 11:30:56;;;;;;;1.03;0.80;;;9.10;99.90;;;;;;5058969;28;20477;-71
2021/03/17 11:33:24;;;;;;;2.00;1.53;;;9.80;99.90;;;;;;5064402;28;20581;-71
2021/03/17 11:35:53;;;;;;;4.50;1.07;;;9.50;99.90;;;;;;5061160;28;20486;-71
2021/03/17 11:38:21;;;;;;;1.60;1.20;;;9.30;99.90;;;;;;5050500;28;20537;-71
2021/03/17 11:40:48;;;;;;;2.80;1.47;;;9.00;99.90;;;;;;5056443;28;20629;-72
2021/03/17 11:43:17;;;;;;;2.90;0.90;;;8.80;99.90;;;;;;5050574;28;20525;-71
2021/03/17 11:45:46;;;;;;;2.63;1.17;;;8.90;99.90;;;;;;5045477;28;20467;-71
2021/03/17 11:48:14;;;;;;;1.70;1.60;;;8.50;99.90;;;;;;5049118;28;20563;-71
2021/03/17 11:50:43;;;;;;;1.27;1.17;;;8.20;99.90;;;;;;5051454;28;20493;-71
2021/03/17 11:53:10;;;;;;;4.00;1.67;;;8.20;99.90;;;;;;5054735;28;20565;-71
2021/03/17 11:55:37;;;;;;;3.63;1.07;;;8.10;99.90;;;;;;5051830;28;20425;-71
2021/03/17 11:58:05;;;;;;;4.50;0.97;;;7.90;99.90;;;;;;5055238;28;20522;-71
2021/03/17 12:00:32;;;;;;;1.00;0.90;;;8.10;99.90;;;;;;5050153;28;20452;-72
2021/03/17 12:02:59;;;;;;;1.40;1.03;;;8.30;99.90;;;;;;5047917;28;20496;-72
2021/03/17 12:05:27;;;;;;;1.30;1.07;;;8.50;99.90;;;;;;5051210;28;20527;-72
2021/03/17 12:07:54;;;;;;;11.83;1.63;;;8.60;99.90;;;;;;5055987;28;21361;-72
2021/03/17 12:10:21;;;;;;;6.50;1.20;;;8.60;99.90;;;;;;5044196;28;20493;-73
2021/03/17 12:12:47;;;;;;;2.13;1.00;;;8.50;99.90;;;;;;5041789;28;20453;-72
2021/03/17 12:15:18;;;;;;;1.23;0.93;;;8.60;99.90;;;;;;5055693;28;20521;-72
2021/03/17 12:17:44;;;;;;;1.63;1.13;;;8.70;99.90;;;;;;5053442;28;20936;-72
2021/03/17 12:20:12;;;;;;;6.87;1.47;;;8.50;99.90;;;;;;5054037;28;20454;-71
2021/03/17 12:22:40;;;;;;;6.93;1.40;;;8.60;99.90;;;;;;5058190;28;20474;-72
2021/03/17 12:25:08;;;;;;;1.50;1.00;;;8.80;99.90;;;;;;5059073;28;20512;-71
2021/03/17 12:27:35;;;;;;;8.23;2.40;;;8.60;99.90;;;;;;5048299;28;20452;-72
2021/03/17 12:30:02;;;;;;;7.10;1.33;;;8.30;99.90;;;;;;5056597;28;20543;-71
2021/03/17 12:32:29;;;;;;;0.90;0.70;;;8.00;99.90;;;;;;5057150;28;20873;-71
2021/03/17 12:34:56;;;;;;;3.20;2.30;;;8.00;99.90;;;;;;5043225;28;20562;-72
2021/03/17 12:37:22;;;;;;;4.57;2.53;;;7.90;99.90;;;;;;5043843;28;20563;-72
2021/03/17 12:39:50;;;;;;;3.63;1.70;;;8.00;99.90;;;;;;5060466;28;20547;-71
2021/03/17 12:42:16;;;;;;;1.37;1.07;;;8.30;99.90;;;;;;5036985;28;20566;-71
2021/03/17 12:44:43;;;;;;;1.70;1.10;;;8.60;99.90;;;;;;5045919;28;20592;-71
2021/03/17 12:47:09;;;;;;;1.83;1.20;;;8.70;99.90;;;;;;5049378;28;20475;-71
2021/03/17 12:49:37;;;;;;;1.10;0.90;;;8.50;99.90;;;;;;5048735;28;20491;-71
2021/03/17 12:52:05;;;;;;;3.60;1.47;;;8.50;99.90;;;;;;5057580;28;21079;-72
2021/03/17 12:54:32;;;;;;;3.13;2.67;;;8.50;99.90;;;;;;5049029;28;21156;-71
2021/03/17 12:56:59;;;;;;;3.27;1.43;;;8.70;99.90;;;;;;5049967;28;20539;-71
2021/03/17 12:59:26;;;;;;;0.90;0.70;;;8.80;99.90;;;;;;5052301;28;20557;-72
2021/03/17 13:01:52;;;;;;;3.13;1.40;;;9.30;99.90;;;;;;5047342;28;21019;-72
2021/03/17 13:04:19;;;;;;;2.00;1.90;;;9.60;99.90;;;;;;5049219;28;20480;-72
2021/03/17 13:06:45;;;;;;;2.53;1.60;;;9.70;99.90;;;;;;5046746;28;20480;-71
2021/03/17 13:09:12;;;;;;;1.10;0.87;;;9.90;99.90;;;;;;5031171;28;20466;-72
2021/03/17 13:11:39;;;;;;;2.50;1.60;;;9.80;99.90;;;;;;5055384;28;20454;-71
2021/03/17 13:14:07;;;;;;;1.30;1.10;;;9.50;99.90;;;;;;5060494;28;20865;-72
2021/03/17 13:16:34;;;;;;;1.30;1.20;;;9.30;99.90;;;;;;5055697;28;20558;-71